Time;durP1;ratioP1;P1;durP2;ratioP2;P2;SDS_P1;SDS_P2;PMS_P1;PMS_P2;Temp;Humidity;BMP_temperature;BMP_pressure;BME280_temperature;BME280_humidity;BME280_pressure;Samples;Min_cycle;Max_cycle;Signal;HPM_P1;HPM_P2
2023/06/03 00:00:31;;;;;;;2.05;0.98;;;9.00;91.60;;;;;;10211190;29;20258;-81
2023/06/03 00:05:33;;;;;;;3.78;1.02;;;8.80;92.20;;;;;;10207080;29;20641;-81
2023/06/03 00:10:36;;;;;;;2.08;0.85;;;8.60;93.70;;;;;;10209688;29;20279;-81
2023/06/03 00:15:38;;;;;;;2.55;1.10;;;8.50;93.90;;;;;;10211239;29;20754;-81
2023/06/03 00:20:47;;;;;;;3.40;1.25;;;8.50;94.90;;;;;;10211025;29;20262;-82
2023/06/03 00:25:50;;;;;;;2.60;0.70;;;8.40;94.10;;;;;;10210010;29;20712;-81
2023/06/03 00:30:53;;;;;;;5.47;1.20;;;8.50;94.70;;;;;;10209896;29;20740;-81
2023/06/03 00:35:55;;;;;;;3.45;0.90;;;8.40;95.90;;;;;;10193324;29;20323;-82
2023/06/03 00:40:58;;;;;;;1.08;0.55;;;8.40;97.00;;;;;;10191908;29;20703;-81
2023/06/03 00:46:01;;;;;;;2.47;0.93;;;8.30;98.50;;;;;;10193015;29;20273;-81
2023/06/03 00:51:04;;;;;;;4.35;0.85;;;8.10;97.50;;;;;;10192347;29;20235;-81
2023/06/03 00:56:07;;;;;;;2.90;0.70;;;8.00;98.00;;;;;;10208986;29;20278;-81
2023/06/03 01:01:11;;;;;;;2.38;0.75;;;7.90;97.20;;;;;;10209308;29;20282;-81
2023/06/03 01:06:52;;;;;;;0.95;0.70;;;7.70;97.40;;;;;;10191497;29;20274;-81
2023/06/03 01:12:04;;;;;;;3.90;1.25;;;7.50;98.20;;;;;;10208597;29;20309;-81
2023/06/03 01:17:09;;;;;;;1.35;0.65;;;7.20;97.80;;;;;;10191823;29;20254;-81
2023/06/03 01:22:16;;;;;;;1.20;0.88;;;7.00;99.20;;;;;;10191620;29;20288;-81
2023/06/03 01:27:20;;;;;;;1.05;0.73;;;7.10;99.60;;;;;;10207569;29;20715;-81
2023/06/03 01:32:25;;;;;;;2.33;1.00;;;6.70;99.40;;;;;;10190605;29;20239;-81
2023/06/03 01:37:28;;;;;;;20.30;2.17;;;6.70;99.30;;;;;;10190332;29;20298;-81
2023/06/03 01:42:31;;;;;;;7.43;1.70;;;6.70;99.90;;;;;;10190480;29;20607;-81
2023/06/03 01:47:34;;;;;;;10.50;1.80;;;6.40;99.20;;;;;;10189299;29;20298;-81
2023/06/03 01:52:37;;;;;;;2.70;1.25;;;6.40;99.90;;;;;;10189830;29;20207;-81
2023/06/03 01:57:40;;;;;;;3.20;1.08;;;6.70;99.90;;;;;;10189886;29;20251;-81
2023/06/03 02:02:43;;;;;;;1.88;0.95;;;6.40;99.90;;;;;;10188882;29;20311;-81
2023/06/03 02:07:46;;;;;;;6.43;1.48;;;6.20;99.90;;;;;;10206512;29;20331;-81
2023/06/03 02:12:49;;;;;;;4.65;0.70;;;6.30;99.90;;;;;;10189751;29;20239;-81
2023/06/03 02:17:52;;;;;;;2.97;1.02;;;6.20;99.90;;;;;;10188595;29;20247;-82
2023/06/03 02:22:54;;;;;;;2.65;1.30;;;6.10;99.90;;;;;;10189160;29;20560;-81
2023/06/03 02:27:58;;;;;;;2.47;0.60;;;6.20;99.90;;;;;;10189491;29;20675;-81
2023/06/03 02:33:00;;;;;;;1.60;0.70;;;6.20;99.90;;;;;;10187989;29;20286;-81
2023/06/03 02:38:03;;;;;;;2.85;0.98;;;6.20;99.90;;;;;;10189190;29;20305;-81
2023/06/03 02:43:06;;;;;;;1.23;0.68;;;6.50;99.90;;;;;;10206443;29;20767;-81
2023/06/03 02:48:08;;;;;;;1.02;0.68;;;6.50;99.90;;;;;;10205510;29;20691;-81
2023/06/03 02:53:11;;;;;;;2.13;1.08;;;6.30;99.90;;;;;;10189216;29;20684;-81
2023/06/03 02:58:15;;;;;;;1.25;0.50;;;6.10;99.90;;;;;;10196124;29;20314;-81
2023/06/03 03:03:18;;;;;;;2.03;0.60;;;6.30;99.90;;;;;;10212547;29;20274;-81
2023/06/03 03:08:22;;;;;;;2.38;0.70;;;6.60;99.90;;;;;;10195278;29;20318;-81
2023/06/03 03:13:25;;;;;;;0.68;0.40;;;6.60;99.90;;;;;;10195686;29;20262;-82
2023/06/03 03:18:28;;;;;;;2.13;0.60;;;6.50;99.90;;;;;;10194835;29;20266;-81
2023/06/03 03:23:32;;;;;;;0.75;0.52;;;6.50;99.90;;;;;;10180625;29;20222;-81
2023/06/03 03:28:37;;;;;;;1.75;0.73;;;6.70;99.90;;;;;;10195601;29;20337;-81
2023/06/03 03:33:40;;;;;;;1.83;0.75;;;6.90;99.90;;;;;;10194661;29;20211;-82
2023/06/03 03:38:44;;;;;;;2.05;0.65;;;7.30;99.90;;;;;;10194369;29;20246;-81
2023/06/03 03:43:50;;;;;;;0.68;0.45;;;7.40;99.90;;;;;;10195159;29;20325;-81
2023/06/03 03:48:53;;;;;;;0.88;0.70;;;7.90;99.90;;;;;;10178119;29;20360;-81
2023/06/03 03:53:56;;;;;;;1.55;0.75;;;8.10;99.90;;;;;;10194294;29;20294;-81
2023/06/03 03:59:04;;;;;;;1.20;0.80;;;8.30;99.90;;;;;;10193813;29;20234;-81
2023/06/03 04:04:23;;;;;;;1.67;0.77;;;8.80;99.90;;;;;;10193203;29;20796;-81
2023/06/03 04:09:26;;;;;;;0.52;0.40;;;8.90;99.90;;;;;;10209360;29;20270;-81
2023/06/03 04:14:50;;;;;;;2.53;0.60;;;9.30;99.90;;;;;;10193363;29;20298;-82
2023/06/03 04:19:57;;;;;;;3.35;0.70;;;9.40;99.90;;;;;;10191921;29;20285;-81
2023/06/03 04:25:09;;;;;;;1.38;0.65;;;9.40;99.90;;;;;;10193894;29;20570;-81
2023/06/03 04:30:19;;;;;;;3.15;0.70;;;9.80;99.90;;;;;;10193069;29;20744;-81
2023/06/03 04:35:23;;;;;;;2.10;0.63;;;10.20;99.90;;;;;;10192570;29;20290;-81
2023/06/03 04:40:27;;;;;;;1.80;0.60;;;10.30;99.90;;;;;;10190986;29;20332;-81
2023/06/03 04:45:31;;;;;;;3.35;0.50;;;10.30;99.90;;;;;;10191901;29;20286;-81
2023/06/03 04:50:35;;;;;;;1.38;0.50;;;10.50;98.60;;;;;;10192185;29;20299;-81
2023/06/03 04:55:43;;;;;;;3.88;0.60;;;10.80;99.90;;;;;;10208381;29;20691;-81
2023/06/03 05:00:52;;;;;;;2.67;0.50;;;10.70;98.80;;;;;;10192898;29;20606;-82
2023/06/03 05:05:54;;;;;;;0.73;0.52;;;11.00;99.90;;;;;;10191993;29;20262;-82
2023/06/03 05:10:58;;;;;;;2.03;0.55;;;11.20;99.90;;;;;;10205967;29;20246;-81
2023/06/03 05:16:00;;;;;;;0.65;0.55;;;11.40;98.50;;;;;;10210426;29;20287;-82
2023/06/03 05:21:05;;;;;;;1.13;0.32;;;11.60;97.30;;;;;;10191801;29;20590;-82
2023/06/03 05:26:08;;;;;;;0.60;0.30;;;11.90;98.40;;;;;;10190261;29;20671;-82
2023/06/03 05:31:11;;;;;;;1.58;0.60;;;12.10;99.90;;;;;;10180695;29;20243;-82
2023/06/03 05:36:14;;;;;;;1.13;0.40;;;12.10;94.80;;;;;;10190658;29;20299;-82
2023/06/03 05:41:18;;;;;;;0.88;0.50;;;12.60;92.50;;;;;;10189594;29;20338;-82
2023/06/03 05:46:21;;;;;;;0.93;0.60;;;12.90;94.70;;;;;;10190282;29;20325;-82
2023/06/03 05:51:23;;;;;;;2.75;0.52;;;13.10;87.50;;;;;;10174825;29;20242;-82
2023/06/03 05:56:27;;;;;;;0.52;0.30;;;13.50;88.00;;;;;;10174788;29;20250;-84
2023/06/03 06:01:33;;;;;;;1.88;0.65;;;13.50;92.40;;;;;;10188469;29;20250;-82
2023/06/03 06:06:36;;;;;;;1.25;0.40;;;13.60;88.00;;;;;;10189723;29;20266;-82
2023/06/03 06:11:39;;;;;;;1.75;0.28;;;13.40;75.70;;;;;;10189322;29;20622;-82
2023/06/03 06:16:42;;;;;;;1.48;0.50;;;13.70;77.20;;;;;;10189114;29;20672;-82
2023/06/03 06:21:47;;;;;;;2.58;1.25;;;13.80;79.00;;;;;;10174293;29;20254;-84
2023/06/03 06:26:50;;;;;;;0.40;0.40;;;14.10;87.90;;;;;;10188824;29;20321;-82
2023/06/03 06:31:53;;;;;;;2.17;0.40;;;14.30;72.50;;;;;;10211622;29;20696;-82
2023/06/03 06:36:58;;;;;;;0.43;0.32;;;14.40;72.30;;;;;;10213706;29;20286;-84
2023/06/03 06:42:11;;;;;;;0.60;0.40;;;14.70;68.60;;;;;;10194838;29;20642;-83
2023/06/03 06:47:25;;;;;;;0.45;0.40;;;15.00;73.70;;;;;;10196192;29;20321;-82
2023/06/03 06:52:29;;;;;;;1.00;0.45;;;15.10;53.50;;;;;;10196981;29;20679;-82
2023/06/03 06:57:35;;;;;;;1.77;0.63;;;15.20;65.90;;;;;;10180534;29;20247;-82
2023/06/03 07:02:37;;;;;;;1.63;0.40;;;15.50;64.50;;;;;;10175522;29;20788;-83
2023/06/03 07:07:40;;;;;;;0.95;0.47;;;15.90;65.40;;;;;;10197000;29;20795;-82
2023/06/03 07:12:43;;;;;;;0.73;0.63;;;15.90;42.60;;;;;;10196198;29;20283;-82
2023/06/03 07:17:52;;;;;;;1.17;0.40;;;16.10;60.90;;;;;;10212214;29;20242;-83
2023/06/03 07:22:56;;;;;;;1.15;0.45;;;16.40;59.10;;;;;;10165901;29;20255;-81
2023/06/03 07:27:59;;;;;;;0.63;0.32;;;16.70;51.50;;;;;;10156885;29;20271;-82
2023/06/03 07:33:04;;;;;;;1.35;0.50;;;17.10;54.80;;;;;;10198846;29;20238;-83
2023/06/03 07:38:07;;;;;;;0.50;0.35;;;16.80;39.60;;;;;;10193339;29;20246;-83
2023/06/03 07:43:11;;;;;;;0.68;0.43;;;17.00;34.90;;;;;;10162404;29;20329;-82
2023/06/03 07:48:15;;;;;;;0.65;0.30;;;16.80;32.10;;;;;;10190278;29;20254;-84
2023/06/03 07:53:24;;;;;;;6.93;0.63;;;16.90;48.00;;;;;;10210792;29;20605;-83
2023/06/03 07:58:27;;;;;;;3.47;1.38;;;16.90;32.40;;;;;;10195971;29;20270;-83
2023/06/03 08:03:32;;;;;;;0.93;0.30;;;17.00;31.30;;;;;;10209281;29;20715;-83
2023/06/03 08:08:34;;;;;;;2.67;0.70;;;17.20;30.80;;;;;;10193936;29;20258;-84
2023/06/03 08:13:37;;;;;;;1.08;0.55;;;17.20;27.10;;;;;;10199838;29;20239;-82
2023/06/03 08:18:48;;;;;;;4.53;0.55;;;17.60;34.00;;;;;;10177992;29;20223;-81
2023/06/03 08:23:50;;;;;;;0.75;0.40;;;17.60;39.70;;;;;;10202103;29;20242;-82
2023/06/03 08:28:53;;;;;;;2.38;0.60;;;17.90;28.60;;;;;;10208633;29;20262;-83
2023/06/03 08:33:55;;;;;;;0.75;0.60;;;17.20;23.90;;;;;;10189612;29;20238;-83
2023/06/03 08:38:58;;;;;;;4.05;0.95;;;17.50;32.40;;;;;;10207827;29;20338;-83
2023/06/03 08:44:07;;;;;;;1.02;0.32;;;18.10;32.70;;;;;;10208950;29;20309;-83
2023/06/03 08:49:22;;;;;;;1.52;0.43;;;18.20;31.70;;;;;;10175951;29;20639;-83
2023/06/03 08:54:29;;;;;;;1.17;0.35;;;18.10;30.60;;;;;;10205923;29;20266;-83
2023/06/03 08:59:34;;;;;;;3.90;0.50;;;18.30;28.20;;;;;;10209569;29;20255;-83
2023/06/03 09:04:38;;;;;;;1.83;0.57;;;18.30;28.20;;;;;;10205881;29;20245;-85
2023/06/03 09:09:41;;;;;;;2.20;0.55;;;18.40;25.10;;;;;;10190378;29;20329;-83
2023/06/03 09:14:46;;;;;;;4.90;0.88;;;18.50;25.10;;;;;;10193238;29;20235;-84
2023/06/03 09:19:49;;;;;;;1.88;0.40;;;18.60;24.80;;;;;;10189787;29;20242;-84
2023/06/03 09:24:51;;;;;;;1.60;0.60;;;18.80;27.40;;;;;;10189998;29;20246;-84
2023/06/03 09:29:54;;;;;;;1.02;0.43;;;18.90;18.30;;;;;;10206132;29;20270;-84
2023/06/03 09:34:58;;;;;;;4.45;1.20;;;18.90;14.90;;;;;;10191131;29;20271;-84
2023/06/03 09:40:05;;;;;;;1.40;0.50;;;18.70;14.50;;;;;;10187953;29;20266;-83
2023/06/03 09:45:29;;;;;;;7.03;1.58;;;18.50;12.80;;;;;;10205197;29;20243;-82
2023/06/03 09:50:32;;;;;;;83.40;16.85;;;18.70;12.00;;;;;;10185706;29;20314;-83
2023/06/03 09:55:36;;;;;;;18.55;3.97;;;19.00;10.40;;;;;;10201239;29;20309;-83
2023/06/03 10:00:47;;;;;;;5.90;0.98;;;19.00;10.10;;;;;;10222099;29;20246;-82
2023/06/03 10:05:49;;;;;;;11.30;0.80;;;19.10;8.40;;;;;;10204696;29;20242;-85
2023/06/03 10:10:57;;;;;;;1.02;0.47;;;18.80;6.70;;;;;;10204121;29;20270;-84
2023/06/03 10:16:02;;;;;;;3.33;0.68;;;18.80;6.50;;;;;;10187686;29;20246;-84
2023/06/03 10:21:12;;;;;;;1.95;0.47;;;18.70;6.20;;;;;;10187748;29;20625;-82
2023/06/03 10:26:16;;;;;;;2.72;0.63;;;18.90;7.70;;;;;;10186471;29;20294;-82
2023/06/03 10:31:20;;;;;;;6.07;0.80;;;19.00;7.90;;;;;;10204911;29;20270;-81
2023/06/03 10:36:24;;;;;;;1.90;0.70;;;19.10;8.40;;;;;;10204285;29;20242;-83
2023/06/03 10:41:29;;;;;;;3.65;0.77;;;19.10;7.80;;;;;;10204934;29;20659;-83
2023/06/03 10:46:36;;;;;;;3.83;0.70;;;19.10;5.90;;;;;;10196073;29;20243;-82
2023/06/03 10:52:12;;;;;;;1.50;0.60;;;19.10;5.10;;;;;;10204033;29;20262;-84
2023/06/03 10:57:18;;;;;;;0.85;0.40;;;19.20;5.40;;;;;;10183794;29;20235;-82
2023/06/03 11:02:20;;;;;;;3.05;0.70;;;18.80;3.30;;;;;;10202815;29;20282;-82
2023/06/03 11:07:33;;;;;;;0.45;0.40;;;18.80;6.50;;;;;;10203709;29;20262;-82
2023/06/03 11:12:52;;;;;;;1.17;0.22;;;18.90;5.90;;;;;;10185379;29;20243;-81
2023/06/03 11:18:14;;;;;;;0.85;0.40;;;19.00;6.70;;;;;;10209577;29;20230;-82
2023/06/03 11:23:45;;;;;;;1.92;0.50;;;19.20;5.60;;;;;;10185335;29;20697;-81
2023/06/03 11:28:48;;;;;;;1.25;0.60;;;19.20;6.40;;;;;;10210509;29;20329;-81
2023/06/03 11:34:22;;;;;;;2.15;0.63;;;19.30;6.80;;;;;;10210809;29;20634;-82
2023/06/03 11:39:25;;;;;;;2.40;0.60;;;19.30;6.50;;;;;;10191617;29;20317;-81
2023/06/03 11:44:28;;;;;;;1.15;0.50;;;19.30;6.20;;;;;;10193345;29;20238;-82
2023/06/03 11:49:35;;;;;;;0.85;0.57;;;19.40;7.20;;;;;;10208993;29;20745;-82
2023/06/03 11:54:45;;;;;;;2.40;0.73;;;19.40;8.10;;;;;;10193167;29;20294;-83
2023/06/03 11:59:48;;;;;;;2.65;0.60;;;19.40;14.70;;;;;;10210210;29;20643;-82
2023/06/03 12:05:02;;;;;;;5.00;0.88;;;19.40;9.80;;;;;;10194580;29;20302;-82
2023/06/03 12:10:06;;;;;;;2.10;0.57;;;19.50;9.00;;;;;;10210795;29;20262;-83
2023/06/03 12:15:09;;;;;;;1.75;0.40;;;19.50;8.30;;;;;;10210812;29;20752;-86
2023/06/03 12:20:28;;;;;;;0.57;0.30;;;19.40;7.40;;;;;;10209695;29;20247;-85
2023/06/03 12:25:35;;;;;;;2.70;0.40;;;19.40;5.50;;;;;;10191008;29;20697;-85
2023/06/03 12:30:38;;;;;;;0.40;0.30;;;19.30;4.60;;;;;;10210063;29;20262;-86
2023/06/03 12:35:55;;;;;;;0.68;0.30;;;19.40;4.90;;;;;;10192669;29;20274;-88
2023/06/03 12:41:09;;;;;;;1.40;0.35;;;19.40;4.20;;;;;;10209709;29;20325;-87
2023/06/03 12:46:19;;;;;;;1.80;0.30;;;19.60;3.80;;;;;;10210521;29;20298;-88
2023/06/03 12:51:23;;;;;;;0.77;0.30;;;19.60;4.80;;;;;;10210004;29;20258;-88
2023/06/03 12:56:28;;;;;;;1.98;0.47;;;19.80;4.30;;;;;;10176508;29;20645;-86
2023/06/03 13:01:31;;;;;;;1.58;0.45;;;19.80;3.20;;;;;;10209415;29;20274;-88
2023/06/03 13:06:33;;;;;;;5.03;0.68;;;19.80;4.20;;;;;;10191985;29;20306;-88
2023/06/03 13:11:36;;;;;;;5.10;0.70;;;19.60;3.60;;;;;;10178122;29;20282;-89
2023/06/03 13:16:38;;;;;;;3.22;0.30;;;19.50;3.20;;;;;;10207121;29;20235;-89
2023/06/03 13:21:41;;;;;;;1.30;0.30;;;19.50;3.60;;;;;;10206012;29;20267;-89
2023/06/03 13:26:43;;;;;;;0.70;0.47;;;19.50;3.70;;;;;;10190066;29;20239;-88
2023/06/03 13:31:46;;;;;;;3.30;0.38;;;19.40;3.80;;;;;;10200501;29;20315;-88
2023/06/03 13:36:49;;;;;;;1.90;0.60;;;19.60;4.60;;;;;;10189888;29;20246;-87
2023/06/03 13:41:56;;;;;;;2.67;0.70;;;19.70;5.30;;;;;;10190905;29;20270;-90
2023/06/03 13:47:01;;;;;;;2.33;0.90;;;19.90;11.60;;;;;;10206984;29;20246;-89
2023/06/03 13:52:04;;;;;;;2.97;0.82;;;20.10;15.20;;;;;;10207983;29;20325;-89
2023/06/03 13:57:08;;;;;;;5.53;0.98;;;20.10;7.70;;;;;;10190524;29;20298;-90
2023/06/03 14:02:13;;;;;;;1.88;0.82;;;20.20;12.00;;;;;;10202989;29;20302;-86
2023/06/03 14:07:16;;;;;;;0.98;0.35;;;20.10;9.20;;;;;;10207401;29;20250;-85
2023/06/03 14:12:19;;;;;;;5.88;0.90;;;20.10;8.70;;;;;;10206756;29;20317;-87
2023/06/03 14:17:23;;;;;;;1.63;0.70;;;20.00;8.40;;;;;;10186512;29;20234;-86
2023/06/03 14:22:28;;;;;;;6.70;1.40;;;20.00;10.10;;;;;;10206536;29;20239;-86
2023/06/03 14:27:31;;;;;;;8.63;0.75;;;;;;;;;;10202627;29;20238;-85
2023/06/03 14:32:34;;;;;;;3.45;0.65;;;20.50;12.10;;;;;;10204952;29;20284;-82
2023/06/03 14:37:37;;;;;;;2.03;1.27;;;20.80;17.60;;;;;;10193391;29;20250;-85
2023/06/03 14:42:40;;;;;;;2.97;1.10;;;20.80;9.90;;;;;;10178181;29;20265;-84
2023/06/03 14:47:43;;;;;;;2.13;0.77;;;20.80;15.20;;;;;;10187409;29;20310;-85
2023/06/03 14:52:45;;;;;;;6.43;0.80;;;20.90;13.30;;;;;;10187885;29;20314;-86
2023/06/03 14:57:48;;;;;;;3.13;0.52;;;20.90;13.50;;;;;;10173997;29;20332;-85
2023/06/03 15:02:51;;;;;;;5.75;1.30;;;21.00;13.60;;;;;;10192029;29;20357;-85
2023/06/03 15:07:53;;;;;;;4.68;0.70;;;21.00;16.50;;;;;;10201013;29;20723;-85
2023/06/03 15:12:56;;;;;;;1.30;0.75;;;21.00;6.90;;;;;;10213007;29;20298;-86
2023/06/03 15:17:58;;;;;;;1.60;0.60;;;21.00;13.90;;;;;;10212768;29;20605;-87
2023/06/03 15:23:02;;;;;;;0.80;0.45;;;20.90;10.40;;;;;;10195845;29;20251;-87
2023/06/03 15:28:04;;;;;;;1.40;0.37;;;20.80;8.70;;;;;;10212240;29;20246;-86
2023/06/03 15:33:07;;;;;;;3.47;0.63;;;20.80;9.40;;;;;;10191783;29;20234;-85
2023/06/03 15:38:10;;;;;;;3.47;0.52;;;20.60;11.40;;;;;;10178501;29;20707;-84
2023/06/03 15:43:12;;;;;;;1.05;0.50;;;20.70;8.30;;;;;;10161758;29;20259;-83
2023/06/03 15:48:15;;;;;;;1.00;0.40;;;20.60;9.90;;;;;;10181286;29;20238;-83
2023/06/03 15:53:18;;;;;;;1.13;0.60;;;20.60;12.00;;;;;;10212770;29;20581;-83
2023/06/03 15:58:20;;;;;;;7.30;0.73;;;20.60;14.40;;;;;;10195328;29;20230;-84
2023/06/03 16:03:23;;;;;;;0.35;0.22;;;20.50;10.40;;;;;;10193701;29;20301;-81
2023/06/03 16:08:25;;;;;;;1.52;0.65;;;20.40;9.60;;;;;;10210648;29;20298;-82
2023/06/03 16:13:28;;;;;;;0.80;0.50;;;20.50;12.60;;;;;;10211152;29;20298;-82
2023/06/03 16:18:31;;;;;;;1.48;0.30;;;20.60;13.40;;;;;;10193983;29;20211;-82
2023/06/03 16:23:33;;;;;;;0.95;0.55;;;20.80;8.40;;;;;;10208372;29;20243;-81
2023/06/03 16:28:36;;;;;;;0.95;0.30;;;20.90;8.80;;;;;;10201711;29;20266;-81
2023/06/03 16:33:39;;;;;;;2.95;0.57;;;21.10;8.40;;;;;;10192005;29;20238;-81
2023/06/03 16:38:41;;;;;;;10.75;1.30;;;21.20;6.00;;;;;;10195206;29;20702;-81
2023/06/03 16:43:44;;;;;;;1.23;0.50;;;21.20;4.20;;;;;;10173764;29;20708;-81
2023/06/03 16:48:46;;;;;;;4.40;1.00;;;21.20;7.50;;;;;;10208760;29;20283;-80
2023/06/03 16:53:49;;;;;;;0.90;0.50;;;21.20;7.00;;;;;;10204023;29;20301;-83
2023/06/03 16:58:52;;;;;;;1.40;0.20;;;21.10;5.00;;;;;;10202419;29;20294;-82
2023/06/03 17:03:56;;;;;;;0.70;0.40;;;21.00;5.50;;;;;;10186176;29;20251;-82
2023/06/03 17:08:58;;;;;;;0.80;0.40;;;20.80;8.20;;;;;;10184266;29;20262;-82
2023/06/03 17:14:02;;;;;;;2.00;0.40;;;20.70;8.00;;;;;;10188777;29;20642;-81
2023/06/03 17:19:05;;;;;;;0.68;0.32;;;20.50;5.20;;;;;;10194695;28;20301;-80
2023/06/03 17:24:08;;;;;;;3.15;0.40;;;20.30;6.10;;;;;;10195700;29;20306;-82
2023/06/03 17:29:10;;;;;;;0.52;0.40;;;20.10;6.60;;;;;;10185834;29;20255;-83
2023/06/03 17:34:13;;;;;;;1.30;0.60;;;19.90;7.20;;;;;;10170069;29;20231;-83
2023/06/03 17:39:15;;;;;;;2.83;0.57;;;19.60;6.90;;;;;;10186696;29;20326;-82
2023/06/03 17:44:19;;;;;;;2.42;0.30;;;19.40;7.20;;;;;;10187646;29;20682;-82
2023/06/03 17:49:22;;;;;;;1.25;0.63;;;19.20;8.30;;;;;;10170493;29;20258;-83
2023/06/03 17:54:24;;;;;;;1.10;0.47;;;18.90;9.60;;;;;;10164000;29;20303;-81
2023/06/03 17:59:27;;;;;;;14.48;1.00;;;18.50;9.70;;;;;;10191737;29;20238;-83
2023/06/03 18:04:29;;;;;;;8.82;1.13;;;18.30;9.90;;;;;;10185424;29;20241;-83
2023/06/03 18:09:32;;;;;;;9.55;1.27;;;17.90;10.30;;;;;;10186500;29;20255;-83
2023/06/03 18:14:35;;;;;;;5.57;0.55;;;17.60;12.10;;;;;;10189352;29;20235;-82
2023/06/03 18:19:37;;;;;;;3.00;0.70;;;16.90;10.60;;;;;;10184513;29;20239;-83
2023/06/03 18:24:40;;;;;;;2.53;0.60;;;16.90;10.30;;;;;;10168309;29;20247;-82
2023/06/03 18:29:43;;;;;;;2.78;0.70;;;16.60;10.70;;;;;;10185934;29;20900;-82
2023/06/03 18:34:45;;;;;;;3.33;0.57;;;16.30;11.60;;;;;;10183409;29;20710;-81
2023/06/03 18:39:48;;;;;;;4.88;0.55;;;16.10;13.30;;;;;;10183087;29;20676;-82
2023/06/03 18:44:50;;;;;;;6.95;1.33;;;15.90;12.80;;;;;;9507360;29;10000654;-82
2023/06/03 18:49:53;;;;;;;4.93;0.73;;;15.60;12.80;;;;;;10182526;29;20298;-82
2023/06/03 18:54:55;;;;;;;1.65;0.75;;;15.40;13.80;;;;;;10168370;29;20667;-81
2023/06/03 18:59:58;;;;;;;5.53;1.02;;;15.30;15.10;;;;;;10163121;29;20663;-81
2023/06/03 19:05:00;;;;;;;2.15;1.00;;;15.00;14.80;;;;;;10181767;29;20363;-81
2023/06/03 19:10:03;;;;;;;2.53;1.20;;;14.80;16.00;;;;;;10183418;29;20313;-81
2023/06/03 19:15:06;;;;;;;10.82;1.65;;;14.50;16.80;;;;;;10183504;29;20235;-81
2023/06/03 19:20:10;;;;;;;5.88;1.55;;;14.50;17.20;;;;;;10181379;29;20298;-81
2023/06/03 19:25:17;;;;;;;4.50;1.00;;;14.30;18.80;;;;;;10181774;29;20655;-82
2023/06/03 19:30:22;;;;;;;5.68;1.40;;;14.00;19.60;;;;;;10165629;29;20317;-82
2023/06/03 19:35:25;;;;;;;9.82;1.17;;;13.80;20.80;;;;;;10182958;29;20244;-82
2023/06/03 19:40:27;;;;;;;5.28;1.45;;;13.70;21.70;;;;;;10188164;29;20630;-82
2023/06/03 19:45:30;;;;;;;4.60;1.63;;;13.40;23.80;;;;;;10170383;29;20297;-82
2023/06/03 19:50:33;;;;;;;10.32;1.48;;;13.20;25.20;;;;;;10190720;29;20334;-82
2023/06/03 19:55:36;;;;;;;5.85;1.40;;;13.00;27.10;;;;;;10187716;29;20709;-82
2023/06/03 20:00:39;;;;;;;6.75;1.40;;;12.90;27.70;;;;;;10188802;29;20306;-82
2023/06/03 20:05:42;;;;;;;7.28;1.48;;;12.70;28.50;;;;;;10168778;29;20364;-82
2023/06/03 20:10:45;;;;;;;4.93;1.17;;;12.30;29.40;;;;;;10186395;29;20363;-82
2023/06/03 20:15:48;;;;;;;2.38;1.30;;;12.20;33.80;;;;;;10186657;29;20235;-81
2023/06/03 20:20:50;;;;;;;3.67;1.73;;;12.20;34.50;;;;;;10187297;29;20258;-82
2023/06/03 20:25:53;;;;;;;6.70;2.10;;;;;;;;;;10168355;29;20238;-82
2023/06/03 20:30:56;;;;;;;5.80;2.55;;;12.10;53.60;;;;;;10186402;29;20326;-82
2023/06/03 20:35:58;;;;;;;2.92;1.40;;;12.20;40.60;;;;;;10190868;29;20319;-82
2023/06/03 20:41:01;;;;;;;10.32;2.50;;;12.20;44.70;;;;;;10189902;29;20274;-83
2023/06/03 20:46:04;;;;;;;5.60;3.30;;;11.60;45.00;;;;;;10188556;29;20636;-81
2023/06/03 20:51:07;;;;;;;14.43;4.75;;;;;;;;;;10190406;29;20274;-82
2023/06/03 20:56:10;;;;;;;18.75;5.82;;;10.60;55.60;;;;;;10189877;29;20321;-82
2023/06/03 21:01:13;;;;;;;18.55;5.53;;;10.40;60.20;;;;;;10179215;29;20301;-83
2023/06/03 21:06:15;;;;;;;10.05;4.00;;;10.50;69.40;;;;;;10199568;29;20250;-81
2023/06/03 21:11:18;;;;;;;17.08;5.43;;;10.60;78.70;;;;;;10185149;29;20262;-83
2023/06/03 21:16:21;;;;;;;22.58;5.40;;;10.70;82.40;;;;;;10182226;29;20242;-81
2023/06/03 21:21:24;;;;;;;23.08;5.85;;;10.60;85.50;;;;;;10170826;29;20259;-82
2023/06/03 21:26:26;;;;;;;22.13;4.50;;;10.60;88.10;;;;;;10207362;29;20255;-83
2023/06/03 21:31:29;;;;;;;26.58;5.55;;;10.50;90.30;;;;;;10208108;29;20262;-82
2023/06/03 21:36:32;;;;;;;13.25;4.72;;;10.30;91.40;;;;;;10192209;29;20238;-82
2023/06/03 21:41:34;;;;;;;11.25;4.13;;;10.30;92.70;;;;;;10191440;29;20718;-82
2023/06/03 21:46:37;;;;;;;15.35;4.20;;;10.10;93.00;;;;;;10206202;29;20267;-82
2023/06/03 21:51:40;;;;;;;5.68;3.38;;;10.20;93.70;;;;;;10207489;29;20671;-82
2023/06/03 21:56:42;;;;;;;13.45;4.78;;;10.20;94.90;;;;;;10207242;29;20306;-81
2023/06/03 22:01:45;;;;;;;14.65;4.30;;;10.30;94.70;;;;;;10204121;29;20271;-80
2023/06/03 22:06:48;;;;;;;17.85;5.85;;;10.10;94.90;;;;;;10207785;29;20301;-80
2023/06/03 22:11:50;;;;;;;12.75;5.15;;;9.80;95.00;;;;;;10190255;29;20307;-82
2023/06/03 22:16:53;;;;;;;14.48;4.50;;;9.50;96.20;;;;;;10207043;29;20636;-81
2023/06/03 22:21:55;;;;;;;11.70;4.13;;;9.60;97.40;;;;;;10206881;29;20215;-81
2023/06/03 22:26:58;;;;;;;13.77;4.35;;;9.60;97.20;;;;;;10189625;29;20274;-81
2023/06/03 22:32:00;;;;;;;15.13;4.65;;;9.60;98.60;;;;;;10189062;29;20326;-81
2023/06/03 22:37:03;;;;;;;12.90;5.05;;;9.30;97.20;;;;;;10205354;29;20239;-81
2023/06/03 22:42:06;;;;;;;13.57;5.13;;;9.20;98.40;;;;;;10206626;29;20322;-82
2023/06/03 22:47:09;;;;;;;13.40;5.32;;;9.10;98.80;;;;;;10206290;29;20246;-81
2023/06/03 22:52:11;;;;;;;16.02;4.93;;;9.10;99.00;;;;;;10205522;29;20266;-81
2023/06/03 22:57:14;;;;;;;9.25;5.30;;;9.10;98.50;;;;;;10206066;29;20313;-81
2023/06/03 23:02:16;;;;;;;9.73;5.13;;;8.70;98.70;;;;;;10206867;29;20713;-81
2023/06/03 23:07:19;;;;;;;9.75;5.35;;;8.90;98.80;;;;;;10205254;29;20710;-81
2023/06/03 23:12:22;;;;;;;13.68;5.40;;;8.80;99.20;;;;;;10209092;29;20663;-81
2023/06/03 23:17:24;;;;;;;10.35;5.07;;;8.50;99.80;;;;;;10213031;29;20266;-81
2023/06/03 23:22:27;;;;;;;10.35;4.95;;;8.60;99.90;;;;;;10213104;29;20282;-81
2023/06/03 23:27:30;;;;;;;10.32;4.07;;;8.60;99.90;;;;;;10212767;29;20619;-81
2023/06/03 23:32:32;;;;;;;19.98;6.05;;;8.60;99.90;;;;;;10212625;29;20294;-81
2023/06/03 23:37:39;;;;;;;30.83;6.55;;;8.50;99.40;;;;;;10211310;29;20633;-81
2023/06/03 23:42:42;;;;;;;56.55;10.15;;;8.30;99.90;;;;;;10194580;29;20271;-81
2023/06/03 23:47:44;;;;;;;53.90;7.85;;;8.40;99.90;;;;;;10195094;29;20274;-81
2023/06/03 23:52:47;;;;;;;37.50;5.93;;;8.20;99.90;;;;;;10212668;29;20325;-81
2023/06/03 23:57:50;;;;;;;15.30;4.25;;;8.10;99.90;;;;;;10212174;29;20251;-81
